createdAt,value
2023-08-09T00:14:16.958Z,82.4
2023-08-09T00:29:26.817Z,82.5
2023-08-09T00:44:36.613Z,82.5
2023-08-09T00:59:46.345Z,82.7
2023-08-09T01:14:56.370Z,82.7
2023-08-09T01:30:06.278Z,82.8
2023-08-09T01:45:16.555Z,82.9
2023-08-09T02:00:27.360Z,82.4
2023-08-09T02:15:37.051Z,83.5
2023-08-09T02:30:47.092Z,83.6
2023-08-09T02:45:56.496Z,83.3
2023-08-09T03:01:06.695Z,83.9
2023-08-09T03:16:16.685Z,84.1
2023-08-09T03:31:26.625Z,84.2
2023-08-09T03:46:36.272Z,84.3
2023-08-09T04:01:46.360Z,84.4
2023-08-09T04:16:56.140Z,84.4
2023-08-09T04:32:05.544Z,84.5
2023-08-09T04:47:16.645Z,84.6
2023-08-09T05:02:27.769Z,84.6
2023-08-09T05:17:38.530Z,84.6
2023-08-09T05:32:48.794Z,84.4
2023-08-09T05:47:59.914Z,84.2
2023-08-09T06:03:10.300Z,84
2023-08-09T06:18:24.982Z,83.7
2023-08-09T06:33:34.911Z,83.7
2023-08-09T06:48:45.363Z,83.5
2023-08-09T07:03:55.928Z,83.3
2023-08-09T07:19:06.668Z,84.1
2023-08-09T07:34:16.559Z,82.8
2023-08-09T07:49:25.739Z,82.5
2023-08-09T08:05:21.300Z,81
2023-08-09T08:20:32.478Z,81.4
2023-08-09T08:35:42.906Z,81
2023-08-09T08:50:52.826Z,80.6
2023-08-09T09:06:03.205Z,80.2
2023-08-09T09:21:13.788Z,79.7
2023-08-09T09:36:23.564Z,79
2023-08-09T09:51:33.602Z,78.9
2023-08-09T10:06:44.125Z,78.1
2023-08-09T10:21:54.206Z,77.9
2023-08-09T10:37:04.334Z,77
2023-08-09T10:52:24.669Z,76.3
2023-08-09T11:07:34.876Z,76
2023-08-09T11:22:44.972Z,75.9
2023-08-09T11:37:54.623Z,74.8
2023-08-09T11:53:04.829Z,73.6
2023-08-09T12:08:15.771Z,72.7
2023-08-09T12:23:27.474Z,54.4
2023-08-09T12:38:40.821Z,47.4
2023-08-09T12:53:51.725Z,66.8
2023-08-09T13:08:59.942Z,68.4
2023-08-09T13:24:09.399Z,68.4
2023-08-09T13:39:19.629Z,66.2
2023-08-09T13:54:29.838Z,66.8
2023-08-09T14:09:39.729Z,65.5
2023-08-09T14:24:49.806Z,66.2
2023-08-09T14:39:59.772Z,67.9
2023-08-09T14:55:11.332Z,64.8
2023-08-09T15:10:21.272Z,64.2
2023-08-09T15:25:31.514Z,65.7
2023-08-09T15:40:41.234Z,66.8
2023-08-09T15:55:50.393Z,67.2
2023-08-09T16:10:59.641Z,67.3
2023-08-09T16:26:09.888Z,67
2023-08-09T16:41:19.304Z,66.3
2023-08-09T16:56:28.828Z,66.9
2023-08-09T17:11:37.436Z,67.6
2023-08-09T17:26:47.173Z,68
2023-08-09T17:41:56.367Z,67.7
2023-08-09T17:57:07.004Z,68.2
2023-08-09T18:12:16.579Z,68.6
2023-08-09T18:27:26.016Z,68.8
2023-08-09T18:42:35.422Z,69
2023-08-09T18:57:45.134Z,69.2
2023-08-09T19:12:54.765Z,69.8
2023-08-09T19:28:04.352Z,69.6
2023-08-09T19:43:13.530Z,69.8
2023-08-09T19:58:24.148Z,70.2
2023-08-09T20:13:33.961Z,70.4
2023-08-09T20:28:43.126Z,70
2023-08-09T20:43:52.562Z,70.9
2023-08-09T20:59:02.238Z,71
2023-08-09T21:14:11.857Z,71.1
2023-08-09T21:29:21.300Z,71.3
2023-08-09T21:44:31.441Z,71.4
2023-08-09T21:59:41.484Z,71.5
2023-08-09T22:14:51.533Z,71.7
2023-08-09T22:30:01.588Z,71.9
2023-08-09T22:45:11.203Z,72.1
2023-08-09T23:00:20.569Z,72.2
2023-08-09T23:15:30.323Z,72.5
2023-08-09T23:30:39.824Z,72.7
2023-08-09T23:45:49.563Z,72.9
